createdAt,value
2023-05-24T18:37:52.692Z,21.40
2023-05-24T18:41:54.918Z,15.40
2023-05-24T18:45:57.113Z,14.90
2023-05-24T18:49:59.390Z,14.80
2023-05-24T18:54:04.270Z,14.60
2023-05-24T18:58:06.501Z,14.50
2023-05-24T19:02:08.666Z,14.30
2023-05-24T19:06:10.901Z,14.10
2023-05-24T19:10:15.611Z,14.00
2023-05-24T19:14:17.778Z,14.00
2023-05-24T19:18:19.984Z,13.90
2023-05-24T19:22:22.161Z,13.80
2023-05-24T19:26:26.855Z,13.80
2023-05-24T19:30:28.972Z,13.60
2023-05-24T19:34:31.184Z,13.50
2023-05-24T19:38:33.301Z,13.50
2023-05-24T19:42:38.028Z,13.40
2023-05-24T19:46:40.151Z,13.30
2023-05-24T19:50:42.326Z,13.20
2023-05-24T19:54:44.484Z,13.20
2023-05-24T19:58:49.322Z,13.10
2023-05-24T20:02:51.613Z,13.00
2023-05-24T20:06:54.063Z,12.90
2023-05-24T20:10:58.523Z,12.90
2023-05-24T20:15:03.719Z,12.90
2023-05-24T20:19:05.862Z,12.80
2023-05-24T20:23:07.972Z,12.70
2023-05-24T20:27:10.110Z,12.60
2023-05-24T20:31:15.010Z,12.60
2023-05-24T20:35:17.343Z,12.50
2023-05-24T20:39:19.462Z,12.50
2023-05-24T20:43:21.562Z,12.40
2023-05-24T20:47:28.137Z,12.50
2023-05-24T20:51:32.169Z,12.50
2023-05-24T20:55:34.286Z,12.40
2023-05-24T20:59:36.412Z,12.40
2023-05-24T21:03:41.265Z,12.40
2023-05-24T21:07:43.435Z,12.40
2023-05-24T21:11:45.711Z,12.30
2023-05-24T21:15:48.093Z,12.40
2023-05-24T21:19:53.049Z,12.30
2023-05-24T21:23:55.146Z,12.30
2023-05-24T21:27:57.360Z,12.30
2023-05-24T21:31:59.541Z,12.20
2023-05-24T21:36:04.388Z,12.20
2023-05-24T21:40:07.726Z,12.30
2023-05-24T21:44:09.869Z,12.30
2023-05-24T21:48:11.988Z,12.30
2023-05-24T21:52:16.679Z,12.30
2023-05-24T21:56:18.946Z,12.20
2023-05-24T22:00:21.742Z,12.10
2023-05-24T22:04:23.909Z,12.00
2023-05-24T22:08:28.675Z,12.00
2023-05-24T22:12:30.870Z,12.00
2023-05-24T22:16:33.164Z,12.00
2023-05-24T22:20:35.399Z,12.00
2023-05-24T22:24:40.198Z,12.00
2023-05-24T22:28:52.487Z,12.10
2023-05-24T22:32:54.723Z,12.00
2023-05-24T22:36:57.174Z,12.00
2023-05-24T22:41:02.064Z,12.00
2023-05-24T22:45:05.462Z,12.10
2023-05-24T22:49:07.601Z,12.10
2023-05-24T22:53:09.743Z,12.10
2023-05-24T22:57:14.443Z,12.10
2023-05-24T23:01:16.742Z,12.00
2023-05-24T23:05:18.895Z,12.00
2023-05-24T23:09:21.258Z,11.90
2023-05-24T23:13:26.309Z,11.90
2023-05-24T23:17:28.479Z,11.90
2023-05-24T23:21:30.584Z,11.90
2023-05-24T23:25:32.762Z,11.90
2023-05-24T23:29:37.793Z,11.90
2023-05-24T23:33:39.936Z,11.80
2023-05-24T23:37:42.133Z,11.80
2023-05-24T23:41:44.241Z,11.80
2023-05-24T23:45:51.242Z,11.80
2023-05-24T23:49:53.620Z,11.80
2023-05-24T23:53:55.746Z,11.80
2023-05-24T23:57:57.912Z,11.80
